Time;durP1;ratioP1;P1;durP2;ratioP2;P2;SDS_P1;SDS_P2;PMS_P1;PMS_P2;Temp;Humidity;BMP_temperature;BMP_pressure;BME280_temperature;BME280_humidity;BME280_pressure;Samples;Min_cycle;Max_cycle;Signal;HPM_P1;HPM_P2
2022/08/03 00:02:37;;;;;;;6.57;4.90;;;;;;;25.73;100.00;100987.13;5096700;28;20036;-75
2022/08/03 00:05:22;;;;;;;5.80;5.07;;;;;;;25.91;100.00;100988.38;5097436;28;20028;-76
2022/08/03 00:08:08;;;;;;;7.13;4.90;;;;;;;25.70;100.00;100988.22;5097419;28;20024;-76
2022/08/03 00:10:54;;;;;;;7.68;5.13;;;;;;;25.65;100.00;100986.84;5097879;28;20116;-75
2022/08/03 00:13:40;;;;;;;9.40;4.97;;;;;;;25.71;100.00;100987.22;5097524;28;20089;-76
2022/08/03 00:16:26;;;;;;;6.68;4.82;;;;;;;25.58;100.00;100981.09;5097727;28;20119;-75
2022/08/03 00:19:11;;;;;;;9.40;4.85;;;;;;;25.52;100.00;100976.16;5096917;28;20345;-75
2022/08/03 00:21:57;;;;;;;7.53;4.40;;;;;;;25.68;100.00;100982.09;5097552;28;20097;-75
2022/08/03 00:24:43;;;;;;;7.30;4.65;;;;;;;25.41;100.00;100984.19;5096973;28;20089;-75
2022/08/03 00:27:29;;;;;;;7.07;4.80;;;;;;;25.50;100.00;100982.63;5097471;28;20445;-75
2022/08/03 00:30:14;;;;;;;5.43;4.88;;;;;;;25.68;100.00;100976.72;5097092;28;20165;-74
2022/08/03 00:33:00;;;;;;;6.72;4.72;;;;;;;24.97;100.00;100989.22;5096654;28;20052;-74
2022/08/03 00:35:47;;;;;;;5.72;4.53;;;;;;;25.20;100.00;100979.50;5096578;28;20028;-74
2022/08/03 00:38:32;;;;;;;5.35;4.85;;;;;;;25.39;100.00;100986.09;5096341;28;20376;-73
2022/08/03 00:41:18;;;;;;;6.50;4.47;;;;;;;25.17;100.00;100998.50;5096439;28;20412;-74
2022/08/03 00:44:04;;;;;;;6.30;4.65;;;;;;;25.07;100.00;100989.44;5097348;28;20024;-75
2022/08/03 00:46:49;;;;;;;5.47;4.97;;;;;;;25.04;100.00;100987.78;5096605;28;20016;-75
2022/08/03 00:49:37;;;;;;;5.53;4.50;;;;;;;25.07;100.00;100982.22;5095936;28;20030;-75
2022/08/03 00:52:23;;;;;;;5.35;4.80;;;;;;;24.91;100.00;100994.19;5095985;28;20020;-74
2022/08/03 00:55:10;;;;;;;10.45;5.47;;;;;;;24.70;100.00;100991.22;5095869;28;20055;-75
2022/08/03 00:57:58;;;;;;;5.38;4.82;;;;;;;24.94;100.00;100997.50;5095769;28;20508;-75
2022/08/03 01:00:43;;;;;;;7.32;5.07;;;;;;;24.75;100.00;101006.97;5096052;28;20043;-74
2022/08/03 01:03:29;;;;;;;5.82;5.20;;;;;;;24.73;100.00;101007.06;5094792;28;20028;-75
2022/08/03 01:06:31;;;;;;;6.88;5.15;;;;;;;24.83;100.00;101008.13;5096262;28;20471;-75
2022/08/03 01:09:38;;;;;;;7.10;5.35;;;;;;;24.90;100.00;101009.41;5095975;28;20020;-74
2022/08/03 01:12:47;;;;;;;6.43;5.05;;;;;;;24.70;100.00;101011.78;5096391;28;20036;-75
2022/08/03 01:15:45;;;;;;;6.47;4.90;;;;;;;24.70;100.00;101001.94;5095144;28;20512;-75
2022/08/03 01:18:46;;;;;;;7.07;5.00;;;;;;;24.54;100.00;101005.75;5096614;28;20077;-74
2022/08/03 01:21:54;;;;;;;6.40;5.20;;;;;;;24.70;100.00;101011.78;5095944;28;20111;-75
2022/08/03 01:24:49;;;;;;;6.30;4.80;;;;;;;24.45;100.00;101009.09;5095347;28;20024;-74
2022/08/03 01:28:01;;;;;;;5.60;4.55;;;;;;;24.66;100.00;101010.28;5095806;28;20024;-75
2022/08/03 01:30:48;;;;;;;6.07;4.50;;;;;;;24.66;100.00;101008.47;5096158;28;20027;-74
2022/08/03 01:33:38;;;;;;;7.70;4.78;;;;;;;24.63;100.00;101006.00;5096194;28;20032;-75
2022/08/03 01:36:29;;;;;;;5.95;4.88;;;;;;;24.87;100.00;101009.63;5095613;28;20024;-74
2022/08/03 01:39:16;;;;;;;7.60;4.80;;;;;;;24.63;100.00;101011.34;5095934;28;20122;-75
2022/08/03 01:42:06;;;;;;;5.85;4.97;;;;;;;24.88;100.00;101003.31;5094954;28;20028;-75
2022/08/03 01:44:53;;;;;;;6.43;4.93;;;;;;;24.86;100.00;101004.34;5095123;28;20035;-76
2022/08/03 01:47:41;;;;;;;7.03;5.07;;;;;;;24.74;100.00;101007.91;5095455;28;20031;-75
2022/08/03 01:50:29;;;;;;;5.30;4.80;;;;;;;24.70;100.00;101006.41;5095325;28;20035;-75
2022/08/03 01:53:16;;;;;;;7.40;5.20;;;;;;;24.33;100.00;101012.63;5095508;28;20093;-75
2022/08/03 01:56:03;;;;;;;5.88;4.70;;;;;;;24.57;100.00;101011.78;5094781;28;20097;-74
2022/08/03 01:58:51;;;;;;;5.32;4.47;;;;;;;24.53;100.00;101012.97;5095715;28;20448;-75
2022/08/03 02:01:39;;;;;;;5.53;4.40;;;;;;;24.74;100.00;101015.97;5094418;28;20165;-74
2022/08/03 02:04:27;;;;;;;5.50;4.50;;;;;;;24.73;100.00;101007.06;5095061;28;20032;-75
2022/08/03 02:07:15;;;;;;;6.40;4.30;;;;;;;24.71;100.00;101009.00;5095028;28;20418;-75
2022/08/03 02:10:04;;;;;;;4.88;4.38;;;;;;;24.72;100.00;101013.41;5095314;28;20034;-75
2022/08/03 02:12:50;;;;;;;5.72;4.82;;;;;;;24.68;100.00;101011.06;5094982;28;20526;-74
2022/08/03 02:15:37;;;;;;;6.03;4.20;;;;;;;24.60;100.00;101008.00;5094712;28;20089;-75
2022/08/03 02:18:25;;;;;;;4.85;4.22;;;;;;;24.49;100.00;101005.22;5095337;28;20028;-75
2022/08/03 02:21:12;;;;;;;5.95;4.55;;;;;;;24.66;100.00;101008.47;5095139;28;20016;-74
2022/08/03 02:23:58;;;;;;;5.05;4.30;;;;;;;24.90;100.00;101005.84;5094550;28;20030;-74
2022/08/03 02:26:45;;;;;;;7.28;4.68;;;;;;;24.83;100.00;101002.75;5094502;28;20114;-74
2022/08/03 02:29:34;;;;;;;6.70;4.60;;;;;;;24.95;100.00;101007.25;5094907;28;20452;-74
2022/08/03 02:32:27;;;;;;;5.28;4.70;;;;;;;25.06;100.00;100995.72;5093763;28;20107;-75
2022/08/03 02:35:17;;;;;;;7.75;4.55;;;;;;;24.74;100.00;101007.91;5095111;28;20033;-75
2022/08/03 02:38:06;;;;;;;7.32;4.45;;;;;;;24.71;100.00;101008.16;5094550;28;20032;-74
2022/08/03 02:40:54;;;;;;;4.95;4.45;;;;;;;24.70;100.00;101014.47;5094042;28;20032;-75
2022/08/03 02:43:44;;;;;;;6.60;4.60;;;;;;;24.59;100.00;101007.16;5094620;28;20435;-75
2022/08/03 02:46:37;;;;;;;5.03;4.22;;;;;;;24.32;100.00;101017.13;5094476;28;20368;-75
2022/08/03 02:49:25;;;;;;;5.85;4.10;;;;;;;24.59;100.00;101019.72;5093511;28;20032;-74
2022/08/03 02:52:12;;;;;;;5.05;4.10;;;;;;;24.79;100.00;101021.88;5094404;28;20440;-75
2022/08/03 02:54:59;;;;;;;5.53;4.32;;;;;;;24.76;100.00;101020.28;5093778;28;20054;-74
2022/08/03 02:57:46;;;;;;;5.50;4.60;;;;;;;24.84;100.00;101017.03;5093384;28;20118;-75
2022/08/03 03:00:33;;;;;;;5.10;4.40;;;;;;;24.68;100.00;101024.44;5094291;28;20038;-74
2022/08/03 03:03:21;;;;;;;5.60;4.38;;;;;;;24.83;100.00;101024.19;5093525;28;20372;-74
2022/08/03 03:06:08;;;;;;;6.93;4.30;;;;;;;24.77;100.00;101024.66;5094057;28;20012;-74
2022/08/03 03:08:55;;;;;;;6.55;4.13;;;;;;;24.70;100.00;101025.19;5093792;28;20413;-75
2022/08/03 03:11:43;;;;;;;4.97;4.18;;;;;;;24.72;100.00;101020.59;5093271;28;20055;-75
2022/08/03 03:14:29;;;;;;;6.75;4.40;;;;;;;24.86;100.00;101023.13;5093159;28;20099;-75
2022/08/03 03:17:16;;;;;;;5.55;4.60;;;;;;;24.72;100.00;101037.53;5094182;28;20114;-74
2022/08/03 03:20:04;;;;;;;7.90;4.50;;;;;;;25.09;100.00;101027.69;5094058;28;20028;-75
2022/08/03 03:22:51;;;;;;;5.70;4.25;;;;;;;24.94;100.00;101029.66;5094444;28;20046;-75
2022/08/03 03:25:37;;;;;;;5.15;4.35;;;;;;;24.71;100.00;101026.91;5094349;28;20036;-75
2022/08/03 03:28:24;;;;;;;6.68;4.60;;;;;;;24.82;100.00;101033.22;5093872;28;20016;-76
2022/08/03 03:31:10;;;;;;;6.05;4.25;;;;;;;24.80;100.00;101026.25;5094054;28;20173;-74
2022/08/03 03:33:58;;;;;;;6.40;4.90;;;;;;;25.01;100.00;101032.75;5093615;28;20035;-78
2022/08/03 03:36:44;;;;;;;6.75;4.90;;;;;;;24.61;100.00;101042.78;5093933;28;20040;-75
2022/08/03 03:39:30;;;;;;;5.00;4.50;;;;;;;24.83;100.00;101042.13;5093647;28;20024;-74
2022/08/03 03:42:16;;;;;;;5.22;4.38;;;;;;;24.77;100.00;101045.22;5094052;28;20036;-75
2022/08/03 03:45:03;;;;;;;4.90;4.40;;;;;;;24.77;100.00;101047.91;5093322;28;20060;-74
2022/08/03 03:47:49;;;;;;;6.25;4.55;;;;;;;24.89;100.00;101042.53;5093681;28;20024;-73
2022/08/03 03:50:36;;;;;;;9.73;4.88;;;;;;;24.85;100.00;101040.19;5093340;28;20031;-74
2022/08/03 03:53:22;;;;;;;5.55;4.53;;;;;;;24.71;100.00;101046.50;5094265;28;20039;-75
2022/08/03 03:56:07;;;;;;;6.75;5.35;;;;;;;24.74;100.00;101058.84;5093570;28;20031;-76
2022/08/03 03:58:55;;;;;;;8.18;5.00;;;;;;;24.64;100.00;101050.63;5093883;28;20063;-74
2022/08/03 04:01:41;;;;;;;5.47;4.88;;;;;;;24.83;100.00;101055.53;5092731;28;20020;-74
2022/08/03 04:11:09;;;;;;;6.80;5.65;;;;;;;24.91;100.00;101045.97;5093582;28;20129;-74
2022/08/03 04:14:05;;;;;;;7.70;6.40;;;;;;;24.63;100.00;101048.88;5093229;28;20325;-75
2022/08/03 04:16:56;;;;;;;9.38;6.30;;;;;;;24.69;100.00;101061.00;5097074;28;20042;-74
2022/08/03 04:19:46;;;;;;;8.95;5.90;;;;;;;24.79;100.00;101059.41;5096738;28;20031;-74
2022/08/03 04:22:34;;;;;;;7.40;5.53;;;;;;;24.62;100.00;101062.38;5097485;28;20440;-75
2022/08/03 04:25:25;;;;;;;7.78;6.28;;;;;;;24.67;100.00;101057.56;5096111;28;20032;-75
2022/08/03 04:28:12;;;;;;;8.80;6.50;;;;;;;24.85;100.00;101058.94;5096679;28;20063;-74
2022/08/03 04:31:00;;;;;;;9.45;6.05;;;;;;;24.47;100.00;101068.78;5097008;28;20351;-74
2022/08/03 04:33:46;;;;;;;11.30;6.50;;;;;;;24.69;100.00;101066.34;5096540;28;20035;-75
2022/08/03 04:36:38;;;;;;;8.90;6.03;;;;;;;24.98;100.00;101065.13;5096214;28;20035;-74
2022/08/03 04:39:26;;;;;;;11.70;5.97;;;;;;;24.74;100.00;101062.38;5096724;28;20479;-74
2022/08/03 04:42:13;;;;;;;7.93;5.90;;;;;;;25.05;100.00;101058.38;5096515;28;20028;-74
2022/08/03 04:45:01;;;;;;;8.93;5.35;;;;;;;25.14;100.00;101069.31;5096390;28;20460;-73
2022/08/03 04:47:49;;;;;;;7.30;5.93;;;;;;;25.42;100.00;101063.69;5096491;28;20028;-75
2022/08/03 04:50:34;;;;;;;7.72;5.15;;;;;;;25.49;100.00;101066.78;5095765;28;20110;-75
2022/08/03 04:53:21;;;;;;;7.00;5.03;;;;;;;25.52;100.00;101061.19;5096535;28;20366;-74
2022/08/03 04:56:07;;;;;;;13.27;5.38;;;;;;;25.84;100.00;101065.03;5095440;28;20034;-75
2022/08/03 04:58:53;;;;;;;6.82;5.35;;;;;;;25.78;100.00;101068.16;5097325;28;20028;-75
2022/08/03 05:01:41;;;;;;;6.97;5.22;;;;;;;25.84;100.00;101075.78;5096078;28;20031;-75
2022/08/03 05:04:26;;;;;;;9.15;4.93;;;;;;;25.61;100.00;101073.94;5095995;28;20515;-75
2022/08/03 05:07:13;;;;;;;6.07;4.30;;;;;;;26.09;100.00;101072.97;5096084;28;20028;-75
2022/08/03 05:09:59;;;;;;;7.55;4.90;;;;;;;26.09;100.00;101073.84;5094852;28;20020;-75
2022/08/03 05:12:47;;;;;;;10.15;5.07;;;;;;;26.06;100.00;101075.88;5096021;28;20452;-75
2022/08/03 05:15:32;;;;;;;11.27;5.25;;;;;;;26.36;100.00;101077.09;5094908;28;20364;-75
2022/08/03 05:18:18;;;;;;;6.18;4.53;;;;;;;26.25;100.00;101079.75;5096061;28;20024;-76
2022/08/03 05:21:04;;;;;;;10.60;4.65;;;;;;;26.20;100.00;101076.53;5095688;28;20108;-75
2022/08/03 05:23:50;;;;;;;9.63;4.70;;;;;;;26.46;100.00;101086.16;5095292;28;20024;-75
2022/08/03 05:26:36;;;;;;;7.47;3.65;;;;;;;26.38;100.00;101085.03;5095299;28;20101;-75
2022/08/03 05:29:21;;;;;;;7.97;4.07;;;;;;;26.51;100.00;101086.66;5095865;28;20345;-74
2022/08/03 05:32:07;;;;;;;4.93;3.47;;;;;;;26.50;100.00;101095.69;5095589;28;20448;-75
2022/08/03 05:34:53;;;;;;;5.97;3.72;;;;;;;26.74;100.00;101103.72;5095235;28;20032;-75
2022/08/03 05:37:39;;;;;;;5.68;3.63;;;;;;;26.62;100.00;101107.34;5095676;28;20047;-76
2022/08/03 05:40:24;;;;;;;7.60;3.45;;;;;;;26.57;100.00;101101.47;5095634;28;20023;-76
2022/08/03 05:43:10;;;;;;;4.65;3.65;;;;;;;27.17;99.20;101107.44;5094923;28;20028;-74
2022/08/03 05:45:57;;;;;;;5.20;3.20;;;;;;;26.59;99.25;101111.16;5096023;28;20459;-76
2022/08/03 05:48:43;;;;;;;5.30;3.50;;;;;;;26.71;100.00;101109.31;5095139;28;20055;-75
2022/08/03 05:51:29;;;;;;;6.50;3.10;;;;;;;26.72;98.22;101109.22;5095687;28;20039;-75
2022/08/03 05:54:14;;;;;;;6.43;3.05;;;;;;;26.89;97.44;101113.28;5094552;28;20442;-74
2022/08/03 05:57:01;;;;;;;3.70;2.97;;;;;;;26.80;96.73;101114.84;5096084;28;20064;-76
2022/08/03 05:59:46;;;;;;;8.82;3.67;;;;;;;27.18;95.14;101119.88;5095092;28;20039;-76
2022/08/03 06:02:32;;;;;;;3.97;3.20;;;;;;;27.22;94.16;101119.56;5095349;28;20093;-77
2022/08/03 06:05:18;;;;;;;4.20;3.28;;;;;;;27.34;93.64;101120.41;5095723;28;20020;-75
2022/08/03 06:08:04;;;;;;;7.63;2.90;;;;;;;27.31;91.53;101115.25;5094569;28;20115;-76
2022/08/03 06:10:50;;;;;;;5.85;3.35;;;;;;;27.56;91.65;101114.97;5085859;28;20107;-76
2022/08/03 06:13:36;;;;;;;3.67;3.22;;;;;;;27.55;91.40;101113.28;5087486;28;20038;-76
2022/08/03 06:16:21;;;;;;;5.93;3.20;;;;;;;27.24;91.23;101116.72;5086878;28;20554;-75
2022/08/03 06:19:07;;;;;;;4.38;3.10;;;;;;;27.48;88.62;101119.28;5085411;28;20064;-74
2022/08/03 06:21:53;;;;;;;4.47;3.20;;;;;;;27.78;86.34;101123.03;5085416;28;20089;-73
2022/08/03 06:24:39;;;;;;;6.70;3.58;;;;;;;27.77;85.94;101121.31;5087193;28;20452;-74
2022/08/03 06:27:25;;;;;;;11.73;6.00;;;;;;;28.12;84.18;101129.22;5085602;28;20105;-75
2022/08/03 06:30:11;;;;;;;10.07;4.15;;;;;;;27.54;96.83;101125.03;5084857;28;20028;-74
2022/08/03 06:32:57;;;;;;;8.23;4.57;;;;;;;27.98;97.21;101116.00;5085222;28;20059;-75
2022/08/03 06:35:43;;;;;;;9.65;3.72;;;;;;;28.00;89.98;101114.91;5086765;28;20520;-74
2022/08/03 06:38:28;;;;;;;8.15;3.83;;;;;;;28.20;84.86;101122.16;5083542;28;20051;-75
2022/08/03 06:41:14;;;;;;;7.75;3.50;;;;;;;27.82;78.78;101121.84;5086601;28;20464;-74
2022/08/03 06:44:00;;;;;;;5.28;2.78;;;;;;;27.82;75.92;101119.13;5085833;28;20036;-73
2022/08/03 06:46:46;;;;;;;13.48;3.60;;;;;;;27.94;76.62;101118.13;5086273;28;20467;-74
2022/08/03 06:49:32;;;;;;;8.32;3.33;;;;;;;28.29;76.85;101121.38;5083561;28;20882;-74
2022/08/03 06:52:18;;;;;;;15.90;4.47;;;;;;;28.80;71.97;101124.22;5085412;28;20020;-74
2022/08/03 06:55:04;;;;;;;12.38;3.33;;;;;;;28.44;72.53;101120.13;5086698;28;20138;-73
2022/08/03 06:57:50;;;;;;;8.63;4.38;;;;;;;28.63;72.28;101114.88;5084773;28;20028;-73
2022/08/03 07:00:40;;;;;;;12.18;9.10;;;;;;;28.69;69.18;101116.19;5083791;28;20060;-75
2022/08/03 07:03:26;;;;;;;10.38;3.60;;;;;;;28.11;69.98;101116.69;5085730;28;20028;-74
2022/08/03 07:06:11;;;;;;;8.52;3.10;;;;;;;28.23;69.30;101116.53;5086243;28;20371;-74
2022/08/03 07:08:58;;;;;;;5.80;3.13;;;;;;;28.37;69.42;101118.06;5083177;28;20162;-74
2022/08/03 07:11:44;;;;;;;5.97;2.78;;;;;;;28.56;67.11;101123.63;5085595;28;20028;-75
2022/08/03 07:14:30;;;;;;;4.97;2.80;;;;;;;28.59;67.83;101126.91;5085801;28;20138;-74
2022/08/03 07:17:15;;;;;;;4.03;2.88;;;;;;;28.76;66.56;101114.69;5085763;28;20024;-73
2022/08/03 07:20:07;;;;;;;7.70;2.90;;;;;;;29.03;63.99;101128.47;5083275;28;20032;-74
2022/08/03 07:22:52;;;;;;;2.80;2.53;;;;;;;28.98;64.92;101126.19;5085214;28;20032;-73
2022/08/03 07:25:38;;;;;;;5.45;2.95;;;;;;;29.18;64.77;101130.72;5086226;28;20357;-74
2022/08/03 07:28:24;;;;;;;6.22;3.70;;;;;;;29.29;66.71;101130.59;5084006;28;20047;-74
2022/08/03 07:31:09;;;;;;;8.57;3.92;;;;;;;29.50;66.31;101131.38;5085275;28;20052;-73
2022/08/03 07:33:55;;;;;;;8.57;3.70;;;;;;;29.39;64.27;101133.34;5085264;28;20028;-73
2022/08/03 07:36:41;;;;;;;9.50;3.67;;;;;;;29.26;63.31;101135.41;5085636;28;20059;-74
2022/08/03 07:39:27;;;;;;;9.18;3.55;;;;;;;29.22;65.90;101134.84;5082428;28;20055;-72
2022/08/03 07:42:13;;;;;;;9.75;3.53;;;;;;;29.25;63.57;101134.56;5085965;28;20028;-76
2022/08/03 07:44:59;;;;;;;11.55;3.90;;;;;;;29.07;64.32;101138.03;5084954;28;20046;-73
2022/08/03 07:47:45;;;;;;;13.88;4.22;;;;;;;29.40;63.14;101135.91;5086183;28;20035;-73
2022/08/03 07:50:31;;;;;;;8.38;3.72;;;;;;;29.66;64.10;101131.75;5087376;28;20494;-71
2022/08/03 07:53:16;;;;;;;9.13;3.70;;;;;;;29.63;64.88;101132.03;5089221;28;20031;-72
2022/08/03 07:56:03;;;;;;;4.65;3.20;;;;;;;29.19;66.69;101147.75;5089060;28;20040;-73
2022/08/03 07:58:49;;;;;;;5.82;3.70;;;;;;;29.44;65.85;101147.28;5087485;28;20032;-72
2022/08/03 08:01:36;;;;;;;10.30;3.60;;;;;;;29.33;65.17;101150.94;5088606;28;20024;-72
2022/08/03 08:04:22;;;;;;;6.45;3.80;;;;;;;29.71;66.72;101144.84;5088384;28;20039;-72
2022/08/03 08:07:08;;;;;;;3.13;2.60;;;;;;;29.83;59.90;101147.31;5089326;28;20074;-72
2022/08/03 08:09:54;;;;;;;4.32;3.10;;;;;;;29.61;61.77;101150.22;5087221;28;20024;-72
2022/08/03 08:12:40;;;;;;;6.68;2.90;;;;;;;29.19;63.73;101156.72;5089009;28;20032;-71
2022/08/03 08:15:26;;;;;;;6.03;3.30;;;;;;;30.54;60.14;101149.63;5088072;28;20422;-73
2022/08/03 08:18:12;;;;;;;5.32;4.00;;;;;;;30.85;57.11;101151.19;5088539;28;20020;-72
2022/08/03 08:21:00;;;;;;;12.95;3.30;;;;;;;31.03;55.22;101145.88;5086972;28;20032;-72
2022/08/03 08:23:46;;;;;;;6.65;2.60;;;;;;;31.65;52.61;101156.91;5088578;28;20024;-72
2022/08/03 08:26:32;;;;;;;3.33;2.90;;;;;;;31.52;52.25;101151.00;5089144;28;20344;-73
2022/08/03 08:29:21;;;;;;;5.45;2.70;;;;;;;31.60;51.55;101151.09;5087265;28;20023;-71
2022/08/03 08:32:10;;;;;;;5.32;2.85;;;;;;;31.70;50.76;101151.88;5090535;28;20051;-72
2022/08/03 08:34:56;;;;;;;8.10;4.70;;;;;;;31.75;49.72;101144.19;5088218;28;20028;-71
2022/08/03 08:37:42;;;;;;;4.80;3.55;;;;;;;31.70;48.91;101142.91;5089655;28;20031;-72
2022/08/03 08:40:28;;;;;;;5.50;3.65;;;;;;;32.25;48.68;101141.81;5086512;28;20039;-73
2022/08/03 08:43:17;;;;;;;7.05;3.60;;;;;;;32.35;49.29;101150.78;5089681;28;20058;-72
2022/08/03 08:46:07;;;;;;;5.28;4.07;;;;;;;32.15;48.72;101158.22;5089619;28;20036;-72
2022/08/03 08:48:53;;;;;;;4.82;3.25;;;;;;;32.01;50.17;101150.59;5086002;28;20119;-72
2022/08/03 08:51:40;;;;;;;3.47;3.03;;;;;;;32.23;50.22;101149.28;5089387;28;20424;-74
2022/08/03 08:54:26;;;;;;;4.72;2.90;;;;;;;32.19;50.87;101158.75;5093799;28;20357;-72
2022/08/03 08:57:12;;;;;;;3.67;3.05;;;;;;;32.78;50.75;101154.38;5094973;28;20448;-73
2022/08/03 09:00:00;;;;;;;4.30;3.55;;;;;;;33.02;48.59;101156.47;5087901;28;20086;-72
2022/08/03 09:02:46;;;;;;;5.50;3.45;;;;;;;32.47;48.79;101153.13;5089563;28;20044;-73
2022/08/03 09:05:32;;;;;;;6.35;3.10;;;;;;;32.05;50.81;101156.53;5091225;28;20020;-73
2022/08/03 09:08:17;;;;;;;5.60;3.13;;;;;;;32.51;50.02;101153.66;5088824;28;20055;-73
2022/08/03 09:11:03;;;;;;;4.20;3.47;;;;;;;33.25;48.06;101155.75;5089005;28;20024;-75
2022/08/03 09:13:49;;;;;;;5.32;3.75;;;;;;;32.72;49.48;101146.00;5087546;28;20036;-75
2022/08/03 09:16:35;;;;;;;6.03;3.92;;;;;;;32.51;49.62;101142.78;5085130;28;20032;-75
2022/08/03 09:19:21;;;;;;;5.85;3.83;;;;;;;32.79;49.01;101150.63;5087478;28;20036;-75
2022/08/03 09:22:14;;;;;;;5.38;3.25;;;;;;;32.87;50.60;101139.03;5086729;28;20454;-76
2022/08/03 09:25:06;;;;;;;5.38;3.85;;;;;;;32.82;49.75;101135.94;5087416;28;20028;-75
2022/08/03 09:27:52;;;;;;;8.32;3.42;;;;;;;32.68;48.28;101131.06;5085315;28;20039;-75
2022/08/03 09:30:43;;;;;;;3.67;3.10;;;;;;;32.53;49.37;101129.91;5087014;28;20051;-76
2022/08/03 09:33:28;;;;;;;7.65;3.20;;;;;;;33.26;48.02;101135.69;5086856;28;20036;-75
2022/08/03 09:36:37;;;;;;;6.75;3.42;;;;;;;31.87;49.09;101131.28;5084494;28;20032;-75
2022/08/03 09:39:28;;;;;;;6.15;3.53;;;;;;;31.59;50.95;101121.44;5086034;28;20024;-76
2022/08/03 09:42:16;;;;;;;4.05;3.33;;;;;;;31.89;50.03;101118.44;5086853;28;20042;-75
2022/08/03 09:45:03;;;;;;;5.07;3.58;;;;;;;31.85;49.64;101122.47;5088477;28;20024;-76
2022/08/03 09:47:49;;;;;;;3.40;3.10;;;;;;;32.01;49.31;101122.63;5085064;28;20046;-75
2022/08/03 09:50:51;;;;;;;5.55;3.30;;;;;;;32.25;49.94;101112.84;5087027;28;20023;-75
2022/08/03 09:53:44;;;;;;;4.65;3.40;;;;;;;32.91;48.53;101124.13;5085204;28;20490;-74
2022/08/03 09:56:57;;;;;;;8.43;3.30;;;;;;;32.77;47.13;101111.09;5082234;28;20115;-75
2022/08/03 09:59:43;;;;;;;7.15;3.05;;;;;;;32.54;46.67;101107.22;5084942;28;20024;-74
2022/08/03 10:02:28;;;;;;;5.38;3.30;;;;;;;32.58;46.93;101104.00;5087119;28;20032;-75
2022/08/03 10:05:31;;;;;;;4.88;3.20;;;;;;;32.46;46.80;101105.25;5086097;28;20111;-75
2022/08/03 10:08:19;;;;;;;4.47;3.13;;;;;;;32.08;46.93;101102.00;5086500;28;20051;-75
2022/08/03 10:11:04;;;;;;;5.55;3.15;;;;;;;32.29;47.00;101088.97;5085044;28;20035;-75
2022/08/03 10:13:51;;;;;;;5.90;3.80;;;;;;;32.61;45.76;101090.13;5085986;28;20028;-75
2022/08/03 10:16:38;;;;;;;7.38;2.80;;;;;;;32.69;46.49;101094.75;5085312;28;20093;-75
2022/08/03 10:19:24;;;;;;;5.93;3.28;;;;;;;31.98;47.36;101091.25;5087204;28;20122;-76
2022/08/03 10:22:24;;;;;;;5.43;3.10;;;;;;;32.09;47.17;101087.44;5085673;28;20107;-76
2022/08/03 10:25:11;;;;;;;3.60;3.30;;;;;;;31.90;48.53;101084.91;5086040;28;20062;-75
2022/08/03 10:28:03;;;;;;;5.07;3.33;;;;;;;32.08;47.75;101085.75;5085372;28;20116;-75
2022/08/03 10:30:51;;;;;;;4.68;3.10;;;;;;;32.45;47.22;101083.72;5086257;28;20036;-76
2022/08/03 10:33:42;;;;;;;6.25;3.20;;;;;;;32.16;48.07;101072.25;5086183;28;20031;-76
2022/08/03 10:36:32;;;;;;;3.53;3.03;;;;;;;32.77;45.49;101076.66;5084325;28;20031;-75
2022/08/03 10:39:20;;;;;;;7.70;4.68;;;;;;;33.12;44.92;101073.00;5086382;28;20027;-77
2022/08/03 10:42:08;;;;;;;3.83;3.42;;;;;;;32.69;45.99;101067.59;5086699;28;20111;-75
2022/08/03 10:45:16;;;;;;;4.63;3.70;;;;;;;32.14;45.75;101068.88;5085588;28;20047;-75
2022/08/03 10:48:04;;;;;;;6.43;3.60;;;;;;;32.67;46.73;101072.34;5084121;28;20093;-75
2022/08/03 10:50:50;;;;;;;6.53;5.75;;;;;;;32.76;45.23;101055.97;5085279;28;20451;-76
2022/08/03 10:53:39;;;;;;;5.20;3.45;;;;;;;33.38;44.88;101054.78;5085284;28;20044;-76
2022/08/03 10:59:44;;;;;;;7.13;3.20;;;;;;;33.44;44.44;101051.41;5084846;28;20050;-76
2022/08/03 11:03:05;;;;;;;3.28;3.00;;;;;;;32.52;43.39;101049.53;5086747;28;20233;-76
2022/08/03 11:05:53;;;;;;;4.45;3.60;;;;;;;33.34;43.22;101039.81;5083686;28;20159;-76
2022/08/03 11:08:39;;;;;;;7.82;3.78;;;;;;;32.91;43.63;101043.50;5085579;28;20051;-76
2022/08/03 11:11:27;;;;;;;7.57;3.60;;;;;;;32.82;45.46;101033.63;5085943;28;20626;-78
2022/08/03 11:14:14;;;;;;;5.90;3.60;;;;;;;33.26;43.45;101029.75;5087631;28;20066;-76
2022/08/03 11:17:07;;;;;;;5.25;3.92;;;;;;;33.87;42.38;101033.00;5085695;28;20032;-76
2022/08/03 11:19:53;;;;;;;3.88;3.05;;;;;;;33.88;42.30;101033.88;5085746;28;20841;-76
2022/08/03 11:22:59;;;;;;;4.55;3.50;;;;;;;32.67;43.54;101028.94;5085592;28;20036;-76
2022/08/03 11:26:14;;;;;;;3.50;3.13;;;;;;;33.13;43.27;101025.78;5089806;28;20077;-76
2022/08/03 11:29:30;;;;;;;7.03;3.15;;;;;;;32.87;43.39;101028.56;5090859;28;20032;-76
2022/08/03 11:32:42;;;;;;;6.25;3.10;;;;;;;33.51;42.07;101007.09;5089450;28;20036;-76
2022/08/03 11:35:30;;;;;;;3.75;3.17;;;;;;;33.58;41.29;101005.41;5090419;28;20814;-76
2022/08/03 11:38:18;;;;;;;3.95;2.97;;;;;;;34.17;39.97;101004.28;5088855;28;20042;-76
2022/08/03 11:41:03;;;;;;;3.25;2.83;;;;;;;34.17;39.61;100990.69;5089353;28;20024;-75
2022/08/03 11:43:49;;;;;;;3.97;3.28;;;;;;;34.51;39.84;101004.97;5089895;28;20082;-76
2022/08/03 11:46:38;;;;;;;3.60;3.20;;;;;;;33.83;39.25;101004.44;5087462;28;20085;-75
2022/08/03 11:49:24;;;;;;;3.17;2.88;;;;;;;33.86;39.85;100997.81;5089456;28;20036;-76
2022/08/03 11:52:10;;;;;;;3.50;3.20;;;;;;;33.33;40.55;100989.22;5089348;28;20032;-75
2022/08/03 11:54:56;;;;;;;3.40;3.10;;;;;;;33.53;40.03;100996.06;5088227;28;20154;-76
2022/08/03 11:57:49;;;;;;;6.65;3.20;;;;;;;33.24;41.94;100999.19;5086531;28;20027;-77
2022/08/03 12:00:35;;;;;;;4.30;3.90;;;;;;;32.60;41.24;101000.72;5089171;28;20024;-76
2022/08/03 12:03:24;;;;;;;6.68;6.05;;;;;;;32.45;42.15;100996.91;5087535;28;20063;-76
2022/08/03 12:06:15;;;;;;;6.60;3.55;;;;;;;32.24;42.21;100991.81;5085826;28;20056;-75
2022/08/03 12:09:01;;;;;;;6.82;3.67;;;;;;;32.59;41.57;100991.75;5089168;28;20149;-75
2022/08/03 12:11:50;;;;;;;5.18;3.38;;;;;;;33.34;40.58;100985.47;5088729;28;20035;-75
2022/08/03 12:14:45;;;;;;;8.30;5.63;;;;;;;33.72;40.38;100984.88;5088801;28;20024;-74
2022/08/03 12:17:39;;;;;;;5.53;3.00;;;;;;;34.15;38.45;100987.31;5086448;28;20063;-76
2022/08/03 12:20:28;;;;;;;3.92;3.10;;;;;;;34.61;38.29;100978.38;5089246;28;20078;-74
2022/08/03 12:23:14;;;;;;;3.30;3.00;;;;;;;33.67;39.16;100973.66;5087959;28;20070;-75
2022/08/03 12:26:05;;;;;;;6.38;4.30;;;;;;;34.31;38.38;100974.53;5089026;28;20089;-73
2022/08/03 12:28:51;;;;;;;4.97;4.03;;;;;;;34.01;38.26;100971.66;5089202;28;20028;-74
2022/08/03 12:31:37;;;;;;;4.18;2.78;;;;;;;33.83;36.21;100966.38;5088640;28;20483;-74
2022/08/03 12:34:23;;;;;;;3.22;2.92;;;;;;;34.23;36.80;100962.81;5088159;28;20048;-73
2022/08/03 12:37:12;;;;;;;9.85;2.90;;;;;;;34.12;36.12;100958.53;5085390;28;20477;-74
2022/08/03 12:40:00;;;;;;;5.55;3.40;;;;;;;34.41;36.02;100958.03;5089253;28;20085;-74
2022/08/03 12:42:46;;;;;;;6.65;2.90;;;;;;;34.24;34.91;100959.06;5087765;28;20409;-73
2022/08/03 12:45:33;;;;;;;3.20;2.90;;;;;;;34.81;34.93;100958.78;5089083;28;20027;-72
2022/08/03 12:48:19;;;;;;;5.40;3.00;;;;;;;34.39;35.43;100962.81;5088855;28;20028;-75
2022/08/03 12:51:11;;;;;;;3.58;2.80;;;;;;;33.69;35.75;100956.16;5088688;28;20115;-74
2022/08/03 12:53:57;;;;;;;4.45;3.40;;;;;;;33.30;37.06;100949.63;5087521;28;20882;-74
2022/08/03 12:57:15;;;;;;;5.82;4.07;;;;;;;33.53;36.62;100950.72;5085451;28;20084;-74
2022/08/03 13:00:10;;;;;;;2.97;2.67;;;;;;;33.15;37.29;100953.16;5062821;28;20127;-73
2022/08/03 13:03:04;;;;;;;5.18;3.17;;;;;;;33.21;38.42;100947.03;5087654;28;20098;-74
2022/08/03 13:05:50;;;;;;;4.70;3.53;;;;;;;33.39;38.09;100950.53;5086001;28;20024;-74
2022/08/03 13:08:36;;;;;;;6.13;3.35;;;;;;;33.43;37.96;100938.31;5086341;28;20035;-74
2022/08/03 13:11:26;;;;;;;3.40;3.10;;;;;;;34.03;37.03;100945.97;5088531;28;20032;-73